METAR AND TAF INFORMATION
METAR FOR GCXO
ADDS - METARS form results

(1643 UTC 16 October 2018)
Data provider http://aviationweather.gov/metar/data/
 
METAR text: GCXO 161630Z 31011KT 280V350 9999 FEW018 20/13 Q1021 NOSIG
Conditions at: GCXO (TENERIFE/LOS ROD, ES) observed 1630 UTC 16 October 2018
Temperature: 20.0°C (68°F)
Dewpoint: 13.0°C (55°F) [RH = 64%]
Pressure (altimeter): 30.15 inches Hg (1021.0 mb)
Winds: from the NW (310 degrees) at 13 MPH (11 knots; 5.7 m/s)
Visibility: 6 or more miles (10+ km)
Ceiling: at least 12,000 feet AGL
Clouds: few clouds at 1800 feet AGL
Weather: no significant weather observed at this time

METAR text: GCXO 161600Z 33012KT 9999 FEW018 20/14 Q1021 NOSIG
Conditions at: GCXO (TENERIFE/LOS ROD, ES) observed 1600 UTC 16 October 2018
Temperature: 20.0°C (68°F)
Dewpoint: 14.0°C (57°F) [RH = 68%]
Pressure (altimeter): 30.15 inches Hg (1021.0 mb)
Winds: from the NNW (330 degrees) at 14 MPH (12 knots; 6.2 m/s)
Visibility: 6 or more miles (10+ km)
Ceiling: at least 12,000 feet AGL
Clouds: few clouds at 1800 feet AGL
Weather: no significant weather observed at this time

Forecast for: GCXO (TENERIFE/LOS ROD, ES)
Text: TAF GCXO 161400Z 1615/1715 31012KT 9999 SCT018 TX23/1615Z TN16/1705Z
Forecast period: 1500 UTC 16 October 2018 to 1500 UTC 17 October 2018
Forecast type: FROM: standard forecast or significant change
Winds: from the NW (310 degrees) at 14 MPH (12 knots; 6.2 m/s)
Visibility: 6 or more miles 10+ km)
Ceiling: at least 12,000 feet AGL
Clouds: scattered clouds at 1800 feet AGL
Weather: no significant weather forecast for this period
Text: PROB30
Forecast period: 1900 UTC 16 October 2018 to 0800 UTC 17 October 2018
Forecast type: TEMPORARY: The following changes expected for less than half the time period
Visibility: 3 miles (5 km)
Ceiling: 700 feet AGL
Clouds: broken clouds at 700 feet AGL
Weather: BR  (mist)

 AIRPORT MAP

 RUNWAY INFORMATION
Runway 12 Runway length 11155 ft Runway width 148 ft
Runway elevation 2060 ft Runway displaced threshold 0 ft Runway heading 111
Runway 30 Runway length 11155 ft Runway width 148 ft
Runway elevation 2002 ft Runway displaced threshold 0 ft Runway heading 291

 AIRPORT FREQUENCIES
Type APP Name APP Frequency 119.7 MHZ
Type ATIS Name ATIS Frequency 118.575 MHZ
Type GND Name GND Frequency 121.7 MHZ
Type TWR Name TWR Frequency 118.7 MHZ

 AIRPORT NEAR NAVIGATION AIDS
Type VOR-DME Name Tenerife Norte Frequency 117700 KHZ
Type NDB Name Tenerife Norte Frequency 410 KHZ



Powered by Virtual Airlines Manager [v2.6.2]